Dobrodošli na spletni strani vremenske postaje Senovo. Vse informacije so informativnega značaja, saj vremenska postaja ni del državne mreže meteoroloških postaj. AKTUALNIH OBVESTIL NI.


Posebna pozornost v zvezi z vremenskimi dogajanji ni potrebna.    Posebna pozornost v zvezi z vremenskimi dogajanji ni potrebna.

Pogled proti Armezu več informacij Pogled proti Armezu


Bohor več informacij Bohor


Radar strel več informacij blitzortung!


Radar padavin več informacij rain snow radar


Obiščite še:

Template documentation
and downloads

And another site



Weather Underground, zgodovina - Tekstovno

Dnevni povzetek za December 9, 2017 Enote:  Angleško    Metrično   Obe
« Predhodni Dan
Naslednji Dan »
Dnevni Tedenski Mesečni Letni Po meri
  Višja: Nižja: Povprečje:
Temperatura: TemperatureC °F -6.4 °F -0.4 °F
Točka rosišča: DewpointC °F -7.6 °F -1.6 °F
Vlažnost: Humidity % 0 % 91 %
Hitrost vetra: WindSpeedKMH mph 0.0 mph 1.6 mph
Sunki vetra: WindSpeedGustKMH mph - -
Veter:- - SSW
Zračni tlak: PressurehPa in 0.0 in -
Padavine: 10.4 in    
Historical Graphs
 
 
Tabelarni podarki za December 9, 2017
Čas Temperatura Točka rosišča Zračni tlak Veter Hitrost vetra Sunki vetra Vlažnost Intenziteta padavin (urna)
TemperatureC °F DewpointC °F PressurehPa in Calm     Humidity % HourlyPrecipMM in
00:02 2.0 °F 0.2 °F 1008.0 in ESE 4.8 mph 11.6 mph 88 % 3.8 in
00:07 2.0 °F 0.2 °F 1008.0 in ESE 6.4 mph 17.7 mph 88 % 4.1 in
00:32 1.6 °F 0.0 °F 1007.0 in SE 7.1 mph 17.2 mph 89 % 3.8 in
00:37 1.5 °F -0.1 °F 1007.0 in SE 6.1 mph 14.0 mph 89 % 3.8 in
00:47 1.3 °F -0.3 °F 1007.0 in SE 5.8 mph 16.3 mph 89 % 3.3 in
00:52 1.2 °F -0.4 °F 1007.0 in SSE 5.5 mph 16.3 mph 89 % 3.3 in
00:57 1.1 °F -0.5 °F 1008.0 in SE 5.5 mph 10.5 mph 89 % 3.0 in
01:02 1.1 °F -0.5 °F 1008.0 in SSE 4.5 mph 11.9 mph 89 % 3.0 in
01:07 1.0 °F -0.6 °F 1008.0 in South 3.1 mph 11.9 mph 89 % 2.5 in
01:22 0.9 °F -0.7 °F 1008.0 in East 5.5 mph 12.2 mph 89 % 1.3 in
01:32 0.9 °F -0.7 °F 1008.0 in East 4.2 mph 7.9 mph 89 % 0.8 in
01:37 0.9 °F -0.6 °F 1008.0 in East 4.7 mph 8.7 mph 90 % 0.5 in
01:48 0.9 °F -0.6 °F 1008.0 in East 4.3 mph 7.9 mph 90 % 0.3 in
01:53 0.9 °F -0.6 °F 1008.0 in East 4.8 mph 9.3 mph 90 % 0.3 in
01:58 0.9 °F -0.6 °F 1008.0 in East 4.8 mph 16.9 mph 90 % 0.3 in
02:08 0.9 °F -0.6 °F 1008.0 in East 7.2 mph 15.4 mph 90 % 1.0 in
02:13 0.9 °F -0.6 °F 1008.0 in East 7.9 mph 15.4 mph 90 % 1.0 in
02:18 0.9 °F -0.6 °F 1008.0 in East 7.1 mph 14.0 mph 90 % 1.3 in
02:23 0.9 °F -0.6 °F 1008.0 in East 4.8 mph 9.0 mph 90 % 1.5 in
02:29 0.9 °F -0.4 °F 1008.0 in East 3.7 mph 6.9 mph 91 % 1.8 in
02:34 1.0 °F -0.4 °F 1008.0 in East 3.1 mph 6.9 mph 90 % 1.8 in
02:39 1.0 °F -0.3 °F 1008.0 in East 5.3 mph 16.9 mph 91 % 2.3 in
02:49 1.1 °F -0.2 °F 1007.0 in East 7.4 mph 16.3 mph 91 % 2.5 in
02:54 1.0 °F -0.3 °F 1007.0 in East 4.8 mph 10.1 mph 91 % 2.5 in
02:59 1.0 °F -0.3 °F 1008.0 in East 4.7 mph 20.9 mph 91 % 2.3 in
03:09 1.0 °F -0.3 °F 1008.0 in East 6.9 mph 17.2 mph 91 % 2.0 in
03:14 1.0 °F -0.3 °F 1008.0 in East 6.9 mph 17.2 mph 91 % 2.0 in
03:15 1.0 °F -0.3 °F 1008.0 in East 6.8 mph 12.6 mph 91 % 2.0 in
03:21 1.0 °F -0.3 °F 1008.0 in East 6.1 mph 12.6 mph 91 % 1.8 in
03:26 1.0 °F -0.3 °F 1007.0 in East 6.1 mph 14.0 mph 91 % 2.0 in
03:30 1.0 °F -0.3 °F 1007.0 in East 6.4 mph 14.0 mph 91 % 1.8 in
03:35 1.0 °F -0.3 °F 1007.0 in East 5.5 mph 10.8 mph 91 % 1.8 in
03:46 1.0 °F -0.3 °F 1008.0 in East 5.0 mph 9.7 mph 91 % 1.3 in
03:56 0.9 °F -0.3 °F 1007.0 in East 5.1 mph 8.7 mph 92 % 1.0 in
04:01 0.9 °F -0.3 °F 1007.0 in East 5.1 mph 8.7 mph 92 % 1.0 in
04:06 0.9 °F -0.3 °F 1007.0 in East 4.0 mph 7.9 mph 92 % 1.0 in
04:11 0.8 °F -0.3 °F 1007.0 in East 3.1 mph 7.9 mph 92 % 1.0 in
04:16 0.8 °F -0.3 °F 1007.0 in East 1.1 mph 5.8 mph 92 % 0.8 in
04:20 0.7 °F -0.4 °F 1007.0 in Calm     92 % 0.8 in
04:25 0.7 °F -0.4 °F 1007.0 in East 0.5 mph 4.7 mph 92 % 0.8 in
04:26 0.7 °F -0.4 °F 1006.0 in East 0.6 mph 4.7 mph 92 % 0.8 in
04:28 0.7 °F -0.4 °F 1006.0 in East 0.6 mph 4.7 mph 92 % 0.8 in
04:30 0.7 °F -0.4 °F 1006.0 in East 0.6 mph 4.7 mph 92 % 0.8 in
04:35 0.7 °F -0.4 °F 1006.0 in Calm     92 % 0.5 in
04:40 0.7 °F -0.4 °F 1006.0 in Calm     92 % 0.5 in
04:45 0.7 °F -0.4 °F 1007.0 in Calm     92 % 0.5 in
04:50 0.6 °F -0.6 °F 1007.0 in Calm     92 % 0.3 in
04:55 0.6 °F -0.6 °F 1007.0 in Calm     92 % 0.8 in
05:05 0.6 °F -0.6 °F 1007.0 in Calm     92 % 0.5 in
05:10 0.6 °F -0.6 °F 1007.0 in Calm     92 % 0.5 in
05:15 0.6 °F -0.6 °F 1007.0 in Calm     92 % 0.5 in
05:20 0.6 °F -0.6 °F 1007.0 in Calm     92 % 0.5 in
05:30 0.6 °F -0.4 °F 1007.0 in Calm     93 % 0.5 in
05:35 0.6 °F -0.4 °F 1007.0 in Calm     93 % 0.5 in
05:40 0.6 °F -0.4 °F 1008.0 in Calm     93 % 0.5 in
05:45 0.6 °F -0.4 °F 1008.0 in Calm     93 % 0.5 in
05:56 0.5 °F -0.5 °F 1008.0 in Calm     93 % 0.3 in
06:01 0.5 °F -0.5 °F 1008.0 in Calm     93 % 0.3 in
06:06 0.5 °F -0.5 °F 1008.0 in Calm     93 % 0.3 in
06:11 0.5 °F -0.5 °F 1007.0 in Calm     93 % 0.3 in
06:16 0.5 °F -0.5 °F 1007.0 in Calm     93 % 0.3 in
06:21 0.5 °F -0.5 °F 1007.0 in Calm     93 % 0.3 in
06:26 0.5 °F -0.5 °F 1007.0 in Calm     93 % 0.3 in
06:31 0.5 °F -0.5 °F 1007.0 in Calm     93 % 0.3 in
06:36 0.5 °F -0.5 °F 1007.0 in Calm     93 % 0.3 in
06:41 0.5 °F -0.5 °F 1008.0 in Calm     93 % 0.3 in
06:46 0.5 °F -0.5 °F 1008.0 in Calm     93 % 0.3 in
06:51 0.5 °F -0.5 °F 1008.0 in Calm     93 % 0.3 in
06:56 0.5 °F -0.5 °F 1008.0 in Calm     93 % 0.3 in
07:06 0.5 °F -0.3 °F 1008.0 in Calm     94 % 0.3 in
07:11 0.5 °F -0.3 °F 1008.0 in Calm     94 % 0.3 in
07:16 0.5 °F -0.3 °F 1008.0 in Calm     94 % 0.0 in
07:21 0.5 °F -0.3 °F 1008.0 in Calm     94 % 0.0 in
07:26 0.5 °F -0.3 °F 1008.0 in Calm     94 % 0.0 in
07:36 0.5 °F -0.3 °F 1008.0 in Calm     94 % 0.3 in
07:41 0.5 °F -0.3 °F 1008.0 in Calm     94 % 0.3 in
07:46 0.5 °F -0.3 °F 1008.0 in Calm     94 % 0.3 in
07:51 0.6 °F -0.3 °F 1008.0 in Calm     94 % 0.3 in
08:01 0.6 °F -0.3 °F 1008.0 in Calm     94 % 0.3 in
08:06 0.6 °F -0.3 °F 1008.0 in Calm     94 % 0.3 in
08:11 0.6 °F -0.3 °F 1008.0 in Calm     94 % 0.3 in
08:16 0.6 °F -0.3 °F 1008.0 in Calm     94 % 0.3 in
08:21 0.6 °F -0.3 °F 1008.0 in Calm     94 % 0.3 in
08:26 0.6 °F -0.3 °F 1008.0 in Calm     94 % 0.0 in
08:31 0.6 °F -0.3 °F 1008.0 in Calm     94 % 0.0 in
08:36 0.6 °F -0.3 °F 1008.0 in Calm     94 % 0.0 in
08:46 0.7 °F -0.2 °F 1008.0 in Calm     94 % 0.3 in
08:51 0.7 °F -0.2 °F 1008.0 in Calm     94 % 0.3 in
09:06 0.7 °F 0.0 °F 1008.0 in Calm     95 % 0.3 in
09:11 0.7 °F 0.0 °F 1008.0 in Calm     95 % 0.3 in
09:26 0.8 °F 0.1 °F 1008.0 in Calm     95 % 0.3 in
09:31 0.8 °F 0.1 °F 1008.0 in Calm     95 % 0.3 in
09:36 0.8 °F 0.1 °F 1008.0 in Calm     95 % 0.3 in
09:41 0.9 °F 0.2 °F 1008.0 in Calm     95 % 0.3 in
09:46 0.9 °F 0.2 °F 1008.0 in Calm     95 % 0.0 in
09:56 0.9 °F 0.2 °F 1009.0 in Calm     95 % 0.0 in
10:01 1.0 °F 0.3 °F 1009.0 in Calm     95 % 0.0 in
10:11 1.0 °F 0.3 °F 1009.0 in Calm     95 % 0.0 in
10:21 1.0 °F 0.3 °F 1009.0 in Calm     95 % 0.0 in
10:31 1.1 °F 0.4 °F 1009.0 in Calm     95 % 0.0 in
10:36 1.1 °F 0.4 °F 1009.0 in Calm     95 % 0.0 in
10:41 1.1 °F 0.4 °F 1009.0 in Calm     95 % 0.0 in
10:51 1.1 °F 0.4 °F 1009.0 in Calm     95 % 0.0 in
11:06 1.3 °F 0.6 °F 1008.0 in Calm     95 % 0.0 in
11:11 1.4 °F 0.7 °F 1008.0 in East 0.3 mph 4.3 mph 95 % 0.0 in
11:22 1.4 °F 0.7 °F 1008.0 in East 1.3 mph 4.0 mph 95 % 0.0 in
11:32 1.5 °F 0.8 °F 1008.0 in East 1.1 mph 4.3 mph 95 % 0.0 in
11:37 1.5 °F 0.8 °F 1008.0 in East 2.3 mph 4.7 mph 95 % 0.0 in
11:42 1.6 °F 0.9 °F 1008.0 in East 2.3 mph 4.7 mph 95 % 0.0 in
11:47 1.6 °F 0.9 °F 1008.0 in East 2.1 mph 4.0 mph 95 % 0.0 in
11:52 1.6 °F 0.9 °F 1008.0 in ESE 1.9 mph 4.0 mph 95 % 0.0 in
11:57 1.7 °F 1.0 °F 1009.0 in SSW 0.8 mph 3.5 mph 95 % 0.0 in
12:02 1.7 °F 1.0 °F 1009.0 in SSW 0.5 mph 4.3 mph 95 % 0.3 in
12:07 1.8 °F 1.1 °F 1009.0 in SSW 1.8 mph 4.7 mph 95 % 0.3 in
12:12 1.8 °F 1.1 °F 1009.0 in SSW 1.8 mph 4.7 mph 95 % 0.3 in
12:17 1.9 °F 1.2 °F 1009.0 in SW 1.0 mph 4.3 mph 95 % 0.3 in
12:27 2.0 °F 1.1 °F 1010.0 in SW 1.1 mph 4.7 mph 94 % 0.3 in
12:42 2.1 °F 1.2 °F 1008.0 in WSW 0.5 mph 3.2 mph 94 % 0.5 in
12:47 2.1 °F 1.2 °F 1008.0 in SW 1.1 mph 4.0 mph 94 % 0.5 in
12:52 2.1 °F 1.2 °F 1008.0 in SSW 1.4 mph 4.0 mph 94 % 0.8 in
12:57 2.1 °F 1.2 °F 1009.0 in SSW 1.8 mph 4.3 mph 94 % 0.8 in
13:07 2.2 °F 1.3 °F 1009.0 in SE 0.8 mph 3.2 mph 94 % 0.8 in
13:12 2.2 °F 1.3 °F 1008.0 in SE 0.6 mph 3.2 mph 94 % 0.8 in
13:17 2.2 °F 1.3 °F 1008.0 in WSW 0.2 mph 1.8 mph 94 % 0.5 in
13:22 2.1 °F 1.2 °F 1008.0 in Calm   1.8 mph 94 % 0.5 in
13:32 2.2 °F 1.3 °F 1009.0 in Calm     94 % 0.8 in
13:37 2.2 °F 1.2 °F 1009.0 in Calm   2.6 mph 93 % 0.5 in
13:47 2.1 °F 1.1 °F 1009.0 in SSW 0.8 mph 3.2 mph 93 % 1.0 in
13:52 2.0 °F 1.0 °F 1009.0 in SSW 1.4 mph 3.5 mph 93 % 0.8 in
13:57 2.0 °F 1.0 °F 1009.0 in SSW 1.3 mph 3.5 mph 93 % 0.8 in
14:02 2.0 °F 1.0 °F 1009.0 in SSW 1.6 mph 3.2 mph 93 % 0.8 in
14:12 1.9 °F 0.9 °F 1009.0 in SW 0.6 mph 4.0 mph 93 % 1.0 in
14:17 1.9 °F 0.9 °F 1009.0 in SSW 0.3 mph 2.6 mph 93 % 1.0 in
14:22 1.9 °F 0.9 °F 1009.0 in SSW 1.6 mph 4.7 mph 93 % 1.0 in
14:27 1.9 °F 0.9 °F 1009.0 in SW 3.4 mph 4.7 mph 93 % 0.8 in
14:32 1.9 °F 0.9 °F 1009.0 in SW 2.9 mph 4.7 mph 93 % 0.8 in
14:47 1.6 °F 0.4 °F 1009.0 in SSW 1.8 mph 4.0 mph 92 % 0.5 in
14:52 1.6 °F 0.4 °F 1009.0 in South 1.0 mph 4.0 mph 92 % 0.5 in
14:57 1.6 °F 0.4 °F 1008.0 in Calm     92 % 0.5 in
15:02 1.3 °F 0.2 °F 1008.0 in SSW 0.5 mph 3.5 mph 92 % 0.5 in
15:12 1.1 °F -0.1 °F 1009.0 in West 0.6 mph 4.7 mph 92 % 0.3 in
15:17 1.0 °F -0.2 °F 1009.0 in West 1.1 mph 6.4 mph 92 % 0.3 in
15:22 0.9 °F -0.3 °F 1009.0 in NNW 2.6 mph 6.4 mph 92 % 0.3 in
15:27 0.8 °F -0.3 °F 1009.0 in NW 3.2 mph 6.4 mph 92 % 0.3 in
15:32 0.7 °F -0.4 °F 1009.0 in WNW 1.9 mph 5.0 mph 92 % 0.3 in
15:52 0.6 °F -0.7 °F 1010.0 in West 1.8 mph 4.7 mph 91 % 0.3 in
15:57 0.3 °F -1.0 °F 1010.0 in West 2.6 mph 4.7 mph 91 % 0.3 in
16:07 0.1 °F -1.3 °F 1010.0 in WNW 2.9 mph 5.0 mph 90 % 0.3 in
16:12 0.1 °F -1.3 °F 1011.1 in WNW 2.9 mph 4.7 mph 90 % 0.3 in
16:23 0.0 °F -1.3 °F 1011.1 in Calm     0 % 0.3 in
16:33 -0.2 °F -1.7 °F 1011.1 in NW 2.6 mph 4.7 mph 90 % 0.0 in
16:38 -0.2 °F -1.7 °F 1011.1 in NW 2.6 mph 4.7 mph 90 % 0.0 in
16:43 -0.2 °F -1.7 °F 1011.1 in NNW 2.7 mph 3.2 mph 90 % 0.0 in
16:48 -0.2 °F -1.7 °F 1011.1 in NNW 1.8 mph 3.2 mph 90 % 0.0 in
16:58 -0.2 °F -1.7 °F 1010.0 in WSW 1.3 mph 3.2 mph 90 % 0.0 in
17:03 -0.2 °F -1.7 °F 1010.0 in WSW 0.2 mph 1.8 mph 90 % 0.0 in
17:08 -0.6 °F -2.1 °F 1010.0 in Calm     90 % 0.0 in
17:23 -0.8 °F -2.2 °F 1011.1 in WSW 0.2 mph 1.8 mph 90 % 0.0 in
17:28 -0.9 °F -2.3 °F 1011.1 in WSW 0.5 mph 3.5 mph 90 % 0.0 in
17:38 -1.0 °F -2.4 °F 1011.1 in NW 0.6 mph 4.0 mph 90 % 0.0 in
17:48 -1.1 °F -2.6 °F 1011.1 in WNW 1.6 mph 2.1 mph 90 % 0.0 in
17:53 -1.1 °F -2.6 °F 1011.1 in WNW 1.6 mph 3.5 mph 90 % 0.0 in
17:58 -1.1 °F -2.6 °F 1011.1 in WNW 1.8 mph 4.0 mph 90 % 0.0 in
18:03 -1.2 °F -2.6 °F 1011.1 in WNW 1.4 mph 4.0 mph 90 % 0.0 in
18:08 -1.2 °F -2.6 °F 1011.1 in NW 0.6 mph 3.5 mph 90 % 0.0 in
18:13 -1.2 °F -2.6 °F 1011.1 in Calm   3.5 mph 90 % 0.0 in
18:18 -1.4 °F -2.8 °F 1011.1 in WNW 1.1 mph 2.6 mph 90 % 0.0 in
18:23 -1.5 °F -2.9 °F 1011.1 in WNW 0.8 mph 2.6 mph 90 % 0.0 in
18:28 -1.6 °F -3.0 °F 1012.1 in WSW 1.8 mph 4.7 mph 90 % 0.0 in
18:33 -1.6 °F -3.0 °F 1012.1 in WSW 2.6 mph 4.7 mph 90 % 0.0 in
18:43 -1.5 °F -2.9 °F 1012.1 in SW 4.3 mph 7.9 mph 90 % 0.0 in
18:48 -1.5 °F -2.9 °F 1012.1 in WSW 3.2 mph 5.8 mph 90 % 0.0 in
18:53 -1.6 °F -3.0 °F 1012.1 in WSW 2.1 mph 4.3 mph 90 % 0.0 in
18:58 -1.7 °F -3.1 °F 1012.1 in SSW 1.6 mph 7.6 mph 90 % 0.0 in
19:03 -1.9 °F -3.3 °F 1012.1 in SW 1.9 mph 7.6 mph 90 % 0.0 in
19:08 -2.0 °F -3.3 °F 1012.1 in West 1.3 mph 5.8 mph 91 % 0.0 in
19:13 -2.1 °F -3.5 °F 1012.1 in NNW 0.8 mph 3.5 mph 90 % 0.0 in
19:18 -2.2 °F -3.6 °F 1012.1 in NNW 0.6 mph 3.5 mph 90 % 0.0 in
19:23 -2.3 °F -3.7 °F 1012.1 in Calm     90 % 0.0 in
19:28 -2.3 °F -3.7 °F 1012.1 in Calm     90 % 0.0 in
19:33 -2.5 °F -3.9 °F 0.0 in Calm     90 % 0.0 in
19:39 -2.6 °F -4.0 °F 0.0 in WNW 0.6 mph 4.0 mph 90 % 0.0 in
19:44 -2.8 °F -4.2 °F 1013.1 in NNW 1.0 mph 4.0 mph 90 % 0.0 in
19:49 -3.0 °F -4.3 °F 1013.1 in NNE 0.3 mph 3.2 mph 91 % 0.0 in
19:59 -3.3 °F -4.7 °F 1013.1 in Calm     90 % 0.0 in
20:04 -3.4 °F -4.8 °F 1013.1 in SSW 0.2 mph 5.0 mph 90 % 0.0 in
20:14 -3.7 °F -5.1 °F 1013.1 in SSW 1.6 mph 4.0 mph 90 % 0.0 in
20:19 -3.8 °F -5.2 °F 1013.1 in SSW 0.6 mph 2.6 mph 90 % 0.0 in
20:24 -3.8 °F -5.2 °F 1013.1 in SSW 1.0 mph 2.6 mph 90 % 0.0 in
20:29 -3.9 °F -5.3 °F 1013.1 in SSW 0.3 mph 3.5 mph 90 % 0.0 in
20:34 -4.0 °F -5.4 °F 1013.1 in SW 1.0 mph 3.5 mph 90 % 0.0 in
20:39 -4.1 °F -5.5 °F 1013.1 in SW 1.0 mph 4.0 mph 90 % 0.3 in
20:54 -4.4 °F -5.8 °F 1013.1 in WSW 0.8 mph 4.0 mph 90 % 0.3 in
21:04 -4.7 °F -6.1 °F 1013.1 in West 0.5 mph 2.1 mph 90 % 0.3 in
21:19 -4.9 °F -6.3 °F 1013.1 in SW 0.5 mph 2.1 mph 90 % 0.3 in
21:24 -4.9 °F -6.3 °F 1013.1 in SW 1.3 mph 3.2 mph 90 % 0.3 in
21:29 -5.0 °F -6.4 °F 1013.1 in SW 1.1 mph 3.2 mph 90 % 0.3 in
21:34 -5.1 °F -6.5 °F 1013.1 in Calm     90 % 0.3 in
21:49 -5.3 °F -6.7 °F 1013.1 in West 0.8 mph 2.6 mph 90 % 0.0 in
21:54 -5.4 °F -6.8 °F 1013.1 in Calm   2.1 mph 90 % 0.0 in
21:59 -5.5 °F -6.9 °F 1013.1 in SSW 0.6 mph 3.2 mph 90 % 0.0 in
22:04 -5.6 °F -7.0 °F 1013.1 in SSW 0.8 mph 3.2 mph 90 % 0.0 in
22:09 -5.7 °F -7.1 °F 1013.1 in SSW 0.2 mph 2.1 mph 90 % 0.0 in
22:14 -5.7 °F -7.1 °F 1013.1 in WSW 0.6 mph 3.5 mph 90 % 0.0 in
22:19 -5.8 °F -7.2 °F 1013.1 in WSW 0.6 mph 3.5 mph 90 % 0.0 in
22:24 -5.9 °F -7.3 °F 1013.1 in NW 1.1 mph 4.0 mph 90 % 0.0 in
22:29 -6.0 °F -7.4 °F 1013.1 in WSW 2.6 mph 4.3 mph 90 % 0.0 in
22:34 -6.0 °F -7.4 °F 1013.1 in SW 2.6 mph 4.7 mph 90 % 0.0 in
22:39 -6.1 °F -7.5 °F 1013.1 in SW 1.6 mph 4.7 mph 90 % 0.0 in
22:49 -6.0 °F -7.4 °F 1013.1 in NNW 1.1 mph 3.2 mph 90 % 0.0 in
22:54 -6.0 °F -7.2 °F 1013.1 in WSW 0.8 mph 3.2 mph 91 % 0.0 in
22:59 -5.9 °F -7.3 °F 0.0 in SSE 2.4 mph 3.5 mph 90 % 0.0 in
23:04 -5.8 °F -7.2 °F 1013.1 in South 1.4 mph 3.5 mph 90 % 0.0 in
23:09 0.0 °F -7.2 °F 0.0 in Calm     0 % 0.0 in
23:14 -5.8 °F -7.2 °F 1014.1 in SW 4.3 mph 5.5 mph 90 % 0.0 in
23:19 -5.8 °F -7.2 °F 1014.1 in SW 2.9 mph 5.5 mph 90 % 0.0 in
23:29 -5.8 °F -7.2 °F 1014.1 in Calm     90 % 0.0 in
23:34 -5.9 °F -7.3 °F 1014.1 in SSE 0.6 mph 4.3 mph 90 % 0.0 in
23:39 -6.0 °F -7.2 °F 1014.1 in South 1.6 mph 4.3 mph 91 % 0.0 in
23:44 -6.1 °F -7.3 °F 1015.1 in South 1.0 mph 3.5 mph 91 % 0.0 in
23:49 -6.2 °F -7.4 °F 1015.1 in Calm     91 % 0.0 in
23:55 -6.4 °F -7.6 °F 1015.1 in SW 0.6 mph 3.2 mph 91 % 0.0 in
Vremenska postaja Senovo
Podatki zbrani iz Weather Underground - 2.5 mb

Script developed by  Jim McMurry - jmcmurry@mwt.net Adapted for the template by  Wim van der Kuil - Leuven-Template.eu

Vremenski podatki so objavljeni na:

European Weather Network

WeatherCloud

Weather Underground

AWEKAS

HAMweather, WeatherForYou, PWS Weather

MapView

Geostik

Slovenia weather network

Oprema, ki se uporablja:

Vremenski program
Cumulus

Vremenski server
Asus

Cumulus

Asus